Terminal Aerodrome Forecast
Issued by NWS

Home | Current Version | Previous Version | Text Only | Print | Product List | Glossary On
Versions: 1 2 3 4 5 6 7 8 9 10 11 12 13 14
966
FTUS42 KMLB 202330
TAFFPR
TAF
KFPR 202330Z 2100/2124 07007KT P6SM FEW030 SCT100
     FM210600 VRB04KT P6SM VCSH SCT025 SCT250
     FM211500 05010KT P6SM VCSH SCT025 SCT250=

USA.gov is the U.S. government's official web portal to all federal, state and local government web resources and services.